Arlington, Minnesota
Current Conditions -  °F | °C
As of 9:34 AM on Friday 28 Nov 2014 (Local Time) from KGYL Reporting Station
Overcast Overcast  
Wind Chill:   Ceiling: 1700
Heat Index: 16°   Visibility: 10mi
Dew Point: 10°   Wind: 7mph
Humidity: 80%   Direction: 90°E
Pressure: 29.95"   Gusts: NA
Location:  44.61°N, 94.08°W
Report Text: KGYL 281534Z AUTO 09006KT 10SM OVC017 M09/M12 A2995 RMK AO2 T10911120
Loading
Personal Weather Stations






























Interactive Weather Map New forecast layout! Learn more

10-Day Weather Forecast

Advertisements
Track Severe Weather on mobile